Time;durP1;ratioP1;P1;durP2;ratioP2;P2;SDS_P1;SDS_P2;PMS_P1;PMS_P2;Temp;Humidity;BMP_temperature;BMP_pressure;BME280_temperature;BME280_humidity;BME280_pressure;Samples;Min_cycle;Max_cycle;Signal;HPM_P1;HPM_P2
2023/11/10 00:00:12;;;;;;;2.22;2.13;;;;;;;;;;1035458;28;20022;-72
2023/11/10 00:00:43;;;;;;;1.08;0.98;;;;;;;;;;1035404;28;20033;-73
2023/11/10 00:01:13;;;;;;;2.20;2.00;;;;;;;;;;1035989;28;20010;-72
2023/11/10 00:01:44;;;;;;;3.75;2.05;;;;;;;;;;1035964;28;20032;-73
2023/11/10 00:02:14;;;;;;;1.77;1.67;;;;;;;;;;1036179;28;20079;-73
2023/11/10 00:02:44;;;;;;;1.35;1.25;;;;;;;;;;1035602;28;20018;-73
2023/11/10 00:03:15;;;;;;;2.30;2.15;;;;;;;;;;1036150;28;20025;-72
2023/11/10 00:03:45;;;;;;;2.10;0.95;;;;;;;;;;1035915;28;20112;-72
2023/11/10 00:04:16;;;;;;;2.05;1.95;;;;;;;;;;1036194;28;20156;-72
2023/11/10 00:04:49;;;;;;;1.42;1.33;;;;;;;;;;1035674;28;20114;-73
2023/11/10 00:05:21;;;;;;;8.38;1.60;;;;;;;;;;1036047;28;20108;-73
2023/11/10 00:05:51;;;;;;;1.63;1.35;;;;;;;;;;1035696;28;20021;-73
2023/11/10 00:06:22;;;;;;;8.25;3.50;;;;;;;;;;1035545;28;20073;-73
2023/11/10 00:06:53;;;;;;;3.17;2.55;;;;;;;;;;1035604;28;20021;-73
2023/11/10 00:07:23;;;;;;;6.30;1.65;;;;;;;;;;1031365;28;20061;-73
2023/11/10 00:07:54;;;;;;;6.05;2.28;;;;;;;;;;1031644;28;20042;-73
2023/11/10 00:08:24;;;;;;;3.20;2.13;;;;;;;;;;1031297;28;20042;-73
2023/11/10 00:08:55;;;;;;;4.07;2.60;;;;;;;;;;1035651;28;20022;-73
2023/11/10 00:09:25;;;;;;;3.47;0.93;;;;;;;;;;1035925;28;20028;-73
2023/11/10 00:09:56;;;;;;;4.82;3.50;;;;;;;;;;1035514;28;20026;-73
2023/11/10 00:10:27;;;;;;;10.88;2.05;;;;;;;;;;1035594;28;20032;-73
2023/11/10 00:10:58;;;;;;;1.60;1.50;;;;;;;;;;1035440;28;20025;-73
2023/11/10 00:11:29;;;;;;;0.65;0.65;;;;;;;;;;1033515;28;20095;-73
2023/11/10 00:12:01;;;;;;;4.40;2.83;;;;;;;;;;1033621;28;20481;-73
2023/11/10 00:12:32;;;;;;;1.83;1.05;;;;;;;;;;1033500;28;20022;-73
2023/11/10 00:13:02;;;;;;;1.75;1.63;;;;;;;;;;1035752;28;20033;-73
2023/11/10 00:13:34;;;;;;;4.45;3.72;;;;;;;;;;1035660;28;20030;-73
2023/11/10 00:14:04;;;;;;;2.10;1.92;;;;;;;;;;1033940;28;20030;-73
2023/11/10 00:14:35;;;;;;;2.50;1.80;;;;;;;;;;1031194;28;20490;-73
2023/11/10 00:15:07;;;;;;;3.75;2.03;;;;;;;;;;1028824;28;20073;-73
2023/11/10 00:15:37;;;;;;;1.90;1.80;;;;;;;;;;1029799;28;20933;-73
2023/11/10 00:16:08;;;;;;;3.17;2.30;;;;;;;;;;1033623;28;20581;-73
2023/11/10 00:16:42;;;;;;;2.35;1.50;;;;;;;;;;1035527;28;20057;-73
2023/11/10 00:17:12;;;;;;;5.50;3.17;;;;;;;;;;1036039;28;20022;-73
2023/11/10 00:17:43;;;;;;;1.17;1.10;;;;;;;;;;1035024;28;20470;-73
2023/11/10 00:18:13;;;;;;;1.52;1.42;;;;;;;;;;1031907;28;20065;-73
2023/11/10 00:18:44;;;;;;;2.35;2.15;;;;;;;;;;1033053;28;20054;-73
2023/11/10 00:19:14;;;;;;;1.15;1.13;;;;;;;;;;1033663;28;20065;-73
2023/11/10 00:19:45;;;;;;;2.03;1.92;;;;;;;;;;1035430;28;20026;-73
2023/11/10 00:20:15;;;;;;;0.68;0.68;;;;;;;;;;1036000;28;20017;-73
2023/11/10 00:20:46;;;;;;;1.10;1.05;;;;;;;;;;1035499;28;20460;-73
2023/11/10 00:21:19;;;;;;;1.45;1.30;;;;;;;;;;1035507;28;20026;-73
2023/11/10 00:21:50;;;;;;;5.10;1.77;;;;;;;;;;1031465;28;20486;-73
2023/11/10 00:22:20;;;;;;;2.97;2.72;;;;;;;;;;1031939;28;20026;-73
2023/11/10 00:22:52;;;;;;;11.10;3.40;;;;;;;;;;1034799;28;20026;-73
2023/11/10 00:23:22;;;;;;;2.50;1.63;;;;;;;;;;1035638;28;20034;-73
2023/11/10 00:23:53;;;;;;;2.30;2.13;;;;;;;;;;1036053;28;20112;-73
2023/11/10 00:24:23;;;;;;;4.18;2.10;;;;;;;;;;1035875;28;20108;-73
2023/11/10 00:24:55;;;;;;;5.65;1.30;;;;;;;;;;1035244;28;20034;-73
2023/11/10 00:25:27;;;;;;;4.57;1.65;;;;;;;;;;1035591;28;20022;-73
2023/11/10 00:25:58;;;;;;;6.57;3.20;;;;;;;;;;1033590;28;20077;-73
2023/11/10 00:26:33;;;;;;;2.35;1.88;;;;;;;;;;1033225;28;20023;-73
2023/11/10 00:27:03;;;;;;;5.25;2.67;;;;;;;;;;1035381;28;20393;-73
2023/11/10 00:27:34;;;;;;;12.70;3.03;;;;;;;;;;1035357;28;20030;-73
2023/11/10 00:28:04;;;;;;;2.85;2.58;;;;;;;;;;1035809;28;20076;-73
2023/11/10 00:28:37;;;;;;;5.57;2.63;;;;;;;;;;1035421;28;20026;-73
2023/11/10 00:29:07;;;;;;;1.85;1.52;;;;;;;;;;1035839;28;20522;-73
2023/11/10 00:29:41;;;;;;;2.30;2.15;;;;;;;;;;1035408;28;20092;-73
2023/11/10 00:30:12;;;;;;;6.90;2.03;;;;;;;;;;1035602;28;20022;-73
2023/11/10 00:30:42;;;;;;;1.80;1.30;;;;;;;;;;1035466;28;20022;-73
2023/11/10 00:31:13;;;;;;;8.30;2.42;;;;;;;;;;1035630;28;20021;-73
2023/11/10 00:31:45;;;;;;;1.50;1.40;;;;;;;;;;1034927;28;20022;-73
2023/11/10 00:32:15;;;;;;;3.50;3.03;;;;;;;;;;1035762;28;20448;-73
2023/11/10 00:32:46;;;;;;;1.63;1.33;;;;;;;;;;1035575;28;20069;-73
2023/11/10 00:33:16;;;;;;;1.75;1.65;;;;;;;;;;1035728;28;20056;-73
2023/11/10 00:33:50;;;;;;;2.65;1.83;;;;;;;;;;1035528;28;20053;-73
2023/11/10 00:34:21;;;;;;;1.88;1.08;;;;;;;;;;1035549;28;20024;-73
2023/11/10 00:34:51;;;;;;;3.55;3.20;;;;;;;;;;1031914;28;20596;-73
2023/11/10 00:35:22;;;;;;;6.43;2.45;;;;;;;;;;1035510;28;20660;-73
2023/11/10 00:35:53;;;;;;;8.93;3.22;;;;;;;;;;1035631;28;20053;-73
2023/11/10 00:36:23;;;;;;;1.83;1.73;;;;;;;;;;1035581;28;20551;-73
2023/11/10 00:36:54;;;;;;;36.22;3.45;;;;;;;;;;1035735;28;20049;-73
2023/11/10 00:37:24;;;;;;;3.17;2.15;;;;;;;;;;1035564;28;20049;-73
2023/11/10 00:37:55;;;;;;;3.22;2.97;;;;;;;;;;1035544;28;20033;-73
2023/11/10 00:38:26;;;;;;;2.53;2.33;;;;;;;;;;1035595;28;20026;-73
2023/11/10 00:38:56;;;;;;;5.55;3.88;;;;;;;;;;1035554;28;20014;-73
2023/11/10 00:39:27;;;;;;;6.22;3.08;;;;;;;;;;1035402;28;20030;-73
2023/11/10 00:39:59;;;;;;;6.47;3.40;;;;;;;;;;1035546;28;20028;-73
2023/11/10 00:40:30;;;;;;;1.30;1.20;;;;;;;;;;1033607;28;20054;-73
2023/11/10 00:41:01;;;;;;;2.28;2.17;;;;;;;;;;1033566;28;20026;-73
2023/11/10 00:41:31;;;;;;;2.05;1.83;;;;;;;;;;1033554;28;20033;-73
2023/11/10 00:42:02;;;;;;;1.88;1.77;;;;;;;;;;1033723;28;20037;-73
2023/11/10 00:42:32;;;;;;;2.58;2.38;;;;;;;;;;1035395;28;20402;-73
2023/11/10 00:43:03;;;;;;;3.30;3.05;;;;;;;;;;1036083;28;20026;-73
2023/11/10 00:43:33;;;;;;;1.08;1.00;;;;;;;;;;1035797;28;20030;-73
2023/11/10 00:44:05;;;;;;;0.88;0.88;;;;;;;;;;1035875;28;20112;-73
2023/11/10 00:44:35;;;;;;;1.73;1.63;;;;;;;;;;1034394;28;20029;-73
2023/11/10 00:45:06;;;;;;;2.83;2.58;;;;;;;;;;1035939;28;20032;-73
2023/11/10 00:45:37;;;;;;;6.32;3.03;;;;;;;;;;1035656;28;20132;-73
2023/11/10 00:46:07;;;;;;;4.63;3.28;;;;;;;;;;1036013;28;20057;-73
2023/11/10 00:46:38;;;;;;;2.42;1.15;;;;;;;;;;1035367;28;20123;-73
2023/11/10 00:47:10;;;;;;;1.67;1.58;;;;;;;;;;1035776;28;20113;-73
2023/11/10 00:47:40;;;;;;;1.92;1.83;;;;;;;;;;1035533;28;20037;-73
2023/11/10 00:48:10;;;;;;;2.85;2.45;;;;;;;;;;1033798;28;20057;-73
2023/11/10 00:48:41;;;;;;;3.33;2.97;;;;;;;;;;1035386;28;20156;-73
2023/11/10 00:49:15;;;;;;;1.95;1.83;;;;;;;;;;1035678;28;20422;-73
2023/11/10 00:49:45;;;;;;;7.10;3.83;;;;;;;;;;1035408;28;20068;-73
2023/11/10 00:50:16;;;;;;;1.13;1.05;;;;;;;;;;1035842;28;20022;-73
2023/11/10 00:50:46;;;;;;;1.42;1.30;;;;;;;;;;1035751;28;20036;-73
2023/11/10 00:51:16;;;;;;;1.40;1.30;;;;;;;;;;1035757;28;20100;-73
2023/11/10 00:51:48;;;;;;;2.47;2.05;;;;;;;;;;1035779;28;20024;-73
2023/11/10 00:52:20;;;;;;;1.23;1.20;;;;;;;;;;1035747;28;20068;-73
2023/11/10 00:52:51;;;;;;;5.10;4.60;;;;;;;;;;1035341;28;20014;-73
2023/11/10 00:53:22;;;;;;;2.58;2.38;;;;;;;;;;1035834;28;21023;-73
2023/11/10 00:53:52;;;;;;;4.13;2.92;;;;;;;;;;1035971;28;20113;-73
2023/11/10 00:54:23;;;;;;;2.45;2.25;;;;;;;;;;1035464;28;20053;-73
2023/11/10 00:54:53;;;;;;;0.50;0.50;;;;;;;;;;1034732;28;20024;-73
2023/11/10 00:55:24;;;;;;;3.20;2.13;;;;;;;;;;1035697;28;20437;-73
2023/11/10 00:55:54;;;;;;;2.08;1.90;;;;;;;;;;1035369;28;20690;-74
2023/11/10 00:56:25;;;;;;;2.60;2.40;;;;;;;;;;1035391;28;20014;-73
2023/11/10 00:56:56;;;;;;;4.18;3.85;;;;;;;;;;1033900;28;20052;-73
2023/11/10 00:57:26;;;;;;;1.85;1.63;;;;;;;;;;1034619;28;20219;-73
2023/11/10 00:57:58;;;;;;;2.42;2.25;;;;;;;;;;1035445;28;20497;-73
2023/11/10 00:58:28;;;;;;;2.28;1.55;;;;;;;;;;1034871;28;20104;-73
2023/11/10 00:58:59;;;;;;;2.97;2.75;;;;;;;;;;1034829;28;20026;-73
2023/11/10 00:59:30;;;;;;;4.13;3.78;;;;;;;;;;1035457;28;20029;-73
2023/11/10 01:00:00;;;;;;;6.05;2.70;;;;;;;;;;1035273;28;20022;-73
2023/11/10 01:00:31;;;;;;;2.38;2.25;;;;;;;;;;1034575;28;20068;-73
2023/11/10 01:01:01;;;;;;;2.72;2.53;;;;;;;;;;1035234;28;20022;-73
2023/11/10 01:01:35;;;;;;;1.52;1.42;;;;;;;;;;1035277;28;20029;-73
2023/11/10 01:02:06;;;;;;;2.17;2.08;;;;;;;;;;1035529;28;20026;-73
2023/11/10 01:02:36;;;;;;;1.10;1.05;;;;;;;;;;1035148;28;20017;-73
2023/11/10 01:03:07;;;;;;;2.90;2.17;;;;;;;;;;1034837;28;20064;-73
2023/11/10 01:03:37;;;;;;;2.25;2.05;;;;;;;;;;1030547;28;20025;-73
2023/11/10 01:04:08;;;;;;;0.65;0.65;;;;;;;;;;1030731;28;20034;-73
2023/11/10 01:04:38;;;;;;;1.73;1.63;;;;;;;;;;1030565;28;20026;-73
2023/11/10 01:05:11;;;;;;;1.52;1.42;;;;;;;;;;1035166;28;20464;-73
2023/11/10 01:05:45;;;;;;;1.90;1.80;;;;;;;;;;1035619;28;20022;-73
2023/11/10 01:06:15;;;;;;;1.65;1.55;;;;;;;;;;1039094;28;20032;-73
2023/11/10 01:06:46;;;;;;;2.42;2.22;;;;;;;;;;1039510;28;20024;-73
2023/11/10 01:07:16;;;;;;;1.05;1.05;;;;;;;;;;1039398;28;20030;-73
2023/11/10 01:07:47;;;;;;;2.95;2.58;;;;;;;;;;1038876;28;20063;-73
2023/11/10 01:08:18;;;;;;;4.07;3.45;;;;;;;;;;1035162;28;20061;-73
2023/11/10 01:08:48;;;;;;;0.30;0.30;;;;;;;;;;1034589;28;20022;-73
2023/11/10 01:09:19;;;;;;;1.75;1.65;;;;;;;;;;1034931;28;20534;-73
2023/11/10 01:09:50;;;;;;;2.35;2.22;;;;;;;;;;1035182;28;20429;-73
2023/11/10 01:10:20;;;;;;;10.57;5.22;;;;;;;;;;1035189;28;20591;-73
2023/11/10 01:10:51;;;;;;;1.60;1.55;;;;;;;;;;1035100;28;20018;-73
2023/11/10 01:11:22;;;;;;;3.30;2.67;;;;;;;;;;1035493;28;20014;-73
2023/11/10 01:11:52;;;;;;;3.33;2.03;;;;;;;;;;1034623;28;20136;-73
2023/11/10 01:12:23;;;;;;;3.75;3.30;;;;;;;;;;1035302;28;20040;-73
2023/11/10 01:12:53;;;;;;;24.73;2.47;;;;;;;;;;1034734;28;20021;-73
2023/11/10 01:13:24;;;;;;;0.85;0.85;;;;;;;;;;1034348;28;20088;-73
2023/11/10 01:13:54;;;;;;;1.60;1.50;;;;;;;;;;1035054;28;20026;-73
2023/11/10 01:14:25;;;;;;;0.80;0.80;;;;;;;;;;1035354;28;20065;-73
2023/11/10 01:14:56;;;;;;;1.02;1.02;;;;;;;;;;1035106;28;20121;-73
2023/11/10 01:15:26;;;;;;;1.25;1.25;;;;;;;;;;1035082;28;20030;-73
2023/11/10 01:15:57;;;;;;;6.82;1.70;;;;;;;;;;1034920;28;20049;-73
2023/11/10 01:16:29;;;;;;;4.47;2.72;;;;;;;;;;1034986;28;20030;-73
2023/11/10 01:16:59;;;;;;;3.10;2.28;;;;;;;;;;1034974;28;20030;-73
2023/11/10 01:17:30;;;;;;;5.30;3.92;;;;;;;;;;1035281;28;20367;-73
2023/11/10 01:18:01;;;;;;;2.13;1.98;;;;;;;;;;1034864;28;20112;-73
2023/11/10 01:18:34;;;;;;;1.67;1.58;;;;;;;;;;1029379;28;20049;-73
2023/11/10 01:19:05;;;;;;;0.68;0.68;;;;;;;;;;1029338;28;20027;-73
2023/11/10 01:19:36;;;;;;;1.98;1.33;;;;;;;;;;1029561;28;20041;-73
2023/11/10 01:20:08;;;;;;;1.95;1.38;;;;;;;;;;1029368;28;20026;-73
2023/11/10 01:20:38;;;;;;;0.70;0.70;;;;;;;;;;1031202;28;20026;-73
2023/11/10 01:21:09;;;;;;;0.52;0.52;;;;;;;;;;1035203;28;20113;-73
2023/11/10 01:21:40;;;;;;;1.15;1.08;;;;;;;;;;1034740;28;20619;-73
2023/11/10 01:22:11;;;;;;;2.55;2.35;;;;;;;;;;1034602;28;20026;-73
2023/11/10 01:22:41;;;;;;;1.58;1.48;;;;;;;;;;1033911;28;20026;-73
2023/11/10 01:23:12;;;;;;;12.80;1.50;;;;;;;;;;1033389;28;20450;-73
2023/11/10 01:23:42;;;;;;;2.45;2.25;;;;;;;;;;1034603;28;20029;-73
2023/11/10 01:24:13;;;;;;;1.08;1.08;;;;;;;;;;1029845;28;20022;-72
2023/11/10 01:24:43;;;;;;;11.13;2.30;;;;;;;;;;1029323;28;20481;-72
2023/11/10 01:25:14;;;;;;;0.60;0.60;;;;;;;;;;1034182;28;20040;-73
2023/11/10 01:25:44;;;;;;;5.82;3.28;;;;;;;;;;1033282;28;20088;-72
2023/11/10 01:26:15;;;;;;;0.63;0.63;;;;;;;;;;1034011;28;20577;-73
2023/11/10 01:26:48;;;;;;;1.85;1.58;;;;;;;;;;1034178;28;20034;-73
2023/11/10 01:27:19;;;;;;;1.45;1.40;;;;;;;;;;1034094;28;20137;-73
2023/11/10 01:27:49;;;;;;;5.45;2.38;;;;;;;;;;1034386;28;20029;-73
2023/11/10 01:28:20;;;;;;;2.38;1.95;;;;;;;;;;1035379;28;20022;-73
2023/11/10 01:28:51;;;;;;;0.30;0.30;;;;;;;;;;1033887;28;20032;-73
2023/11/10 01:29:21;;;;;;;3.28;2.55;;;;;;;;;;1035391;28;20116;-73
2023/11/10 01:29:55;;;;;;;1.17;1.08;;;;;;;;;;1031519;28;20125;-73
2023/11/10 01:30:25;;;;;;;8.90;2.42;;;;;;;;;;1032853;28;20065;-73
2023/11/10 01:30:56;;;;;;;2.15;1.67;;;;;;;;;;1032358;28;20022;-74
2023/11/10 01:31:27;;;;;;;3.75;2.67;;;;;;;;;;1034070;28;20029;-73
2023/11/10 01:31:59;;;;;;;1.85;1.75;;;;;;;;;;1030850;28;20080;-73
2023/11/10 01:32:31;;;;;;;1.20;1.13;;;;;;;;;;1029795;28;20026;-73
2023/11/10 01:33:01;;;;;;;0.50;0.50;;;;;;;;;;1030308;28;20026;-74
2023/11/10 01:33:32;;;;;;;1.30;0.95;;;;;;;;;;1030707;28;20394;-73
2023/11/10 01:34:02;;;;;;;3.13;2.88;;;;;;;;;;1034697;28;20057;-73
2023/11/10 01:34:33;;;;;;;2.97;2.78;;;;;;;;;;1030144;28;20032;-73
2023/11/10 01:35:04;;;;;;;1.20;0.82;;;;;;;;;;1034269;28;20029;-73
2023/11/10 01:35:34;;;;;;;0.65;0.63;;;;;;;;;;1034833;28;20026;-73
2023/11/10 01:36:05;;;;;;;2.92;2.70;;;;;;;;;;1034714;28;20398;-74
2023/11/10 01:36:35;;;;;;;2.25;2.05;;;;;;;;;;1033316;28;20125;-73
2023/11/10 01:37:06;;;;;;;14.40;2.00;;;;;;;;;;1033853;28;20022;-73
2023/11/10 01:37:36;;;;;;;1.77;1.67;;;;;;;;;;1033564;28;20030;-73
2023/11/10 01:38:08;;;;;;;2.40;2.28;;;;;;;;;;1034080;28;20022;-73
2023/11/10 01:38:40;;;;;;;0.75;0.75;;;;;;;;;;1033467;28;20030;-73
2023/11/10 01:39:10;;;;;;;1.08;0.98;;;;;;;;;;1034099;28;20044;-73
2023/11/10 01:39:41;;;;;;;2.20;2.03;;;;;;;;;;1034479;28;20033;-73
2023/11/10 01:40:12;;;;;;;1.77;1.67;;;;;;;;;;1033728;28;20488;-73
2023/11/10 01:40:43;;;;;;;1.55;1.45;;;;;;;;;;1033812;28;20620;-74
2023/11/10 01:41:15;;;;;;;1.48;1.38;;;;;;;;;;1042048;22;20110;-73
2023/11/10 01:41:45;;;;;;;3.65;3.40;;;;;;;;;;1042471;28;20036;-73
2023/11/10 01:42:16;;;;;;;2.42;2.33;;;;;;;;;;1042194;28;20029;-73
2023/11/10 01:42:47;;;;;;;0.65;0.65;;;;;;;;;;1042859;28;20033;-73
2023/11/10 01:43:18;;;;;;;3.03;2.83;;;;;;;;;;1042214;28;20579;-74
2023/11/10 01:43:49;;;;;;;1.02;1.02;;;;;;;;;;1041706;28;20033;-73
2023/11/10 01:44:19;;;;;;;1.60;1.50;;;;;;;;;;1041330;28;20017;-73
2023/11/10 01:44:50;;;;;;;2.17;1.73;;;;;;;;;;1041851;28;20029;-73
2023/11/10 01:45:20;;;;;;;0.30;0.30;;;;;;;;;;1041501;28;20104;-73
2023/11/10 01:45:53;;;;;;;1.13;1.08;;;;;;;;;;1042682;28;20500;-73
2023/11/10 01:46:43;;;;;;;1.63;1.52;;;;;;;;;;1037526;28;20401;-73
2023/11/10 01:47:14;;;;;;;1.80;1.70;;;;;;;;;;1033287;28;20068;-73
2023/11/10 01:47:46;;;;;;;1.23;1.15;;;;;;;;;;1034401;28;20029;-73
2023/11/10 01:48:17;;;;;;;2.80;1.70;;;;;;;;;;1035817;28;20132;-73
2023/11/10 01:48:48;;;;;;;2.50;1.50;;;;;;;;;;1038094;28;20029;-74
2023/11/10 01:49:21;;;;;;;1.45;1.35;;;;;;;;;;1037252;28;20025;-74
2023/11/10 01:49:52;;;;;;;1.95;1.85;;;;;;;;;;1037436;28;20026;-74
2023/11/10 01:50:24;;;;;;;1.65;1.55;;;;;;;;;;1037312;28;20067;-74
2023/11/10 01:50:54;;;;;;;4.90;4.50;;;;;;;;;;1036650;28;20907;-74
2023/11/10 01:51:29;;;;;;;0.82;0.82;;;;;;;;;;1032781;28;20022;-74
2023/11/10 01:51:59;;;;;;;2.28;1.75;;;;;;;;;;1026075;28;20039;-74
2023/11/10 01:52:30;;;;;;;1.05;1.05;;;;;;;;;;1025837;28;20526;-73
2023/11/10 01:53:02;;;;;;;2.72;2.28;;;;;;;;;;1028921;28;20057;-73
2023/11/10 01:53:32;;;;;;;3.05;2.17;;;;;;;;;;1030909;28;20532;-74
2023/11/10 01:54:05;;;;;;;3.65;3.42;;;;;;;;;;1038339;28;20056;-74
2023/11/10 01:54:36;;;;;;;1.73;1.02;;;;;;;;;;1034582;28;20147;-73
2023/11/10 01:55:09;;;;;;;1.52;1.23;;;;;;;;;;1037854;28;20032;-73
2023/11/10 01:55:40;;;;;;;4.65;0.98;;;;;;;;;;1037561;28;20372;-73
2023/11/10 01:56:11;;;;;;;3.97;1.50;;;;;;;;;;1036915;28;20103;-73
2023/11/10 01:56:42;;;;;;;3.58;1.95;;;;;;;;;;1034182;28;20025;-74
2023/11/10 01:57:12;;;;;;;1.27;1.05;;;;;;;;;;1033912;28;20030;-74
2023/11/10 01:57:43;;;;;;;0.95;0.95;;;;;;;;;;1038894;28;20029;-73
2023/11/10 01:58:13;;;;;;;0.63;0.45;;;;;;;;;;1033876;28;20030;-74
2023/11/10 01:58:44;;;;;;;1.95;1.05;;;;;;;;;;1038343;28;20144;-74
2023/11/10 01:59:15;;;;;;;1.48;1.38;;;;;;;;;;1038147;28;20022;-73
2023/11/10 01:59:47;;;;;;;2.25;0.60;;;;;;;;;;1035209;28;20452;-73
2023/11/10 02:00:20;;;;;;;0.68;0.68;;;;;;;;;;1034083;28;20033;-73
2023/11/10 02:00:51;;;;;;;2.92;1.98;;;;;;;;;;1031858;28;20103;-73
2023/11/10 02:01:24;;;;;;;8.52;2.65;;;;;;;;;;1035040;28;20412;-73
2023/11/10 02:01:54;;;;;;;0.45;0.45;;;;;;;;;;1038591;28;20044;-73
2023/11/10 02:02:25;;;;;;;5.07;2.83;;;;;;;;;;1037625;28;20054;-73
2023/11/10 02:03:03;;;;;;;0.82;0.82;;;;;;;;;;1038064;28;20460;-73
2023/11/10 02:03:34;;;;;;;2.10;1.63;;;;;;;;;;1035531;28;20026;-74
2023/11/10 02:04:05;;;;;;;0.25;0.25;;;;;;;;;;1037539;28;20029;-74
2023/11/10 02:04:36;;;;;;;2.40;2.03;;;;;;;;;;1037199;28;20571;-74
2023/11/10 02:05:08;;;;;;;0.90;0.90;;;;;;;;;;1037452;28;20091;-74
2023/11/10 02:05:38;;;;;;;2.35;2.17;;;;;;;;;;1033482;28;20065;-74
2023/11/10 02:06:09;;;;;;;0.55;0.55;;;;;;;;;;1033029;28;20018;-74
2023/11/10 02:06:41;;;;;;;0.30;0.30;;;;;;;;;;1030113;28;20034;-74
2023/11/10 02:07:11;;;;;;;1.70;1.60;;;;;;;;;;1032985;28;20037;-74
2023/11/10 02:07:42;;;;;;;0.88;0.88;;;;;;;;;;1032290;28;20124;-74
2023/11/10 02:08:13;;;;;;;0.95;0.90;;;;;;;;;;1029356;28;20022;-74
2023/11/10 02:08:44;;;;;;;6.32;1.90;;;;;;;;;;1034300;28;20492;-74
2023/11/10 02:09:15;;;;;;;0.45;0.45;;;;;;;;;;1033058;28;20116;-74
2023/11/10 02:09:46;;;;;;;0.80;0.80;;;;;;;;;;1035409;28;20507;-74
2023/11/10 02:10:16;;;;;;;1.00;1.00;;;;;;;;;;1035193;28;20033;-74
2023/11/10 02:10:47;;;;;;;0.88;0.88;;;;;;;;;;1033267;28;20025;-74
2023/11/10 02:11:18;;;;;;;1.20;1.10;;;;;;;;;;1029704;28;20473;-74
2023/11/10 02:11:49;;;;;;;0.73;0.73;;;;;;;;;;1035730;28;20055;-74
2023/11/10 02:12:19;;;;;;;1.50;1.42;;;;;;;;;;1035126;28;20022;-74
2023/11/10 02:12:54;;;;;;;0.95;0.95;;;;;;;;;;1031735;28;20033;-74
2023/11/10 02:13:24;;;;;;;1.55;1.45;;;;;;;;;;1037969;28;20060;-74
2023/11/10 02:14:01;;;;;;;2.00;1.60;;;;;;;;;;1035096;28;20599;-74
2023/11/10 02:14:32;;;;;;;20.00;1.98;;;;;;;;;;1032770;28;20553;-74
2023/11/10 02:15:06;;;;;;;15.05;2.78;;;;;;;;;;1034202;28;20137;-74
2023/11/10 02:15:37;;;;;;;2.15;1.80;;;;;;;;;;1034852;28;20034;-74
2023/11/10 02:16:07;;;;;;;1.45;1.35;;;;;;;;;;1034238;28;20374;-74
2023/11/10 02:16:38;;;;;;;3.30;1.35;;;;;;;;;;1035368;28;20605;-74
2023/11/10 02:17:09;;;;;;;1.58;1.48;;;;;;;;;;1036139;28;20028;-74
2023/11/10 02:17:40;;;;;;;0.75;0.75;;;;;;;;;;1034752;28;20018;-74
2023/11/10 02:18:11;;;;;;;2.25;2.05;;;;;;;;;;1035682;28;20457;-74
2023/11/10 02:18:41;;;;;;;0.60;0.60;;;;;;;;;;1035664;28;20468;-74
2023/11/10 02:19:15;;;;;;;0.35;0.35;;;;;;;;;;1033460;28;20025;-74
2023/11/10 02:19:46;;;;;;;0.82;0.82;;;;;;;;;;1032295;28;20403;-74
2023/11/10 02:20:16;;;;;;;1.20;1.10;;;;;;;;;;1028940;28;20176;-73
2023/11/10 02:20:47;;;;;;;1.58;1.48;;;;;;;;;;1028796;28;20066;-74
2023/11/10 02:21:18;;;;;;;1.15;0.60;;;;;;;;;;1032341;28;20025;-74
2023/11/10 02:21:48;;;;;;;5.05;2.92;;;;;;;;;;1036652;28;20068;-74
2023/11/10 02:22:19;;;;;;;0.65;0.65;;;;;;;;;;1034999;28;20870;-74
2023/11/10 02:22:49;;;;;;;2.38;2.20;;;;;;;;;;1035904;28;20025;-74
2023/11/10 02:23:21;;;;;;;0.10;0.10;;;;;;;;;;1037415;28;20036;-74
2023/11/10 02:24:01;;;;;;;0.45;0.30;;;;;;;;;;1036873;28;20163;-74
2023/11/10 02:24:32;;;;;;;0.43;0.43;;;;;;;;;;1036367;28;20029;-74
2023/11/10 02:25:04;;;;;;;2.80;2.15;;;;;;;;;;1037102;28;20037;-74
2023/11/10 02:25:35;;;;;;;1.20;1.20;;;;;;;;;;1037244;28;20461;-74
2023/11/10 02:26:05;;;;;;;3.70;3.40;;;;;;;;;;1037792;28;20036;-73
2023/11/10 02:26:36;;;;;;;0.63;0.57;;;;;;;;;;1037228;28;20696;-74
2023/11/10 02:27:06;;;;;;;0.55;0.38;;;;;;;;;;1032734;28;20029;-74
2023/11/10 02:27:37;;;;;;;0.38;0.38;;;;;;;;;;1032788;28;20037;-73
2023/11/10 02:28:07;;;;;;;2.50;0.57;;;;;;;;;;1032603;28;20429;-74
2023/11/10 02:28:40;;;;;;;0.95;0.52;;;;;;;;;;1032525;28;20030;-74
2023/11/10 02:29:10;;;;;;;0.65;0.65;;;;;;;;;;1031723;28;20033;-74
2023/11/10 02:29:41;;;;;;;0.30;0.30;;;;;;;;;;1032940;28;20472;-74
2023/11/10 02:30:12;;;;;;;1.02;0.95;;;;;;;;;;1030761;28;20442;-74
2023/11/10 02:30:43;;;;;;;21.13;1.38;;;;;;;;;;1035817;28;20033;-74
2023/11/10 02:31:16;;;;;;;1.17;1.17;;;;;;;;;;1035875;28;20029;-74
2023/11/10 02:31:47;;;;;;;2.75;1.85;;;;;;;;;;1033064;28;20156;-73
2023/11/10 02:32:18;;;;;;;1.50;1.40;;;;;;;;;;1033270;28;20034;-74
2023/11/10 02:32:49;;;;;;;0.85;0.85;;;;;;;;;;1033577;28;20076;-74
2023/11/10 02:33:20;;;;;;;3.63;2.28;;;;;;;;;;1036383;28;20100;-74
2023/11/10 02:33:50;;;;;;;1.00;0.95;;;;;;;;;;1033054;28;20030;-74
2023/11/10 02:34:21;;;;;;;1.67;1.58;;;;;;;;;;1032854;28;20073;-74
2023/11/10 02:34:51;;;;;;;2.63;1.55;;;;;;;;;;1037084;28;20021;-74
2023/11/10 02:35:22;;;;;;;0.50;0.50;;;;;;;;;;1037049;28;20023;-74
2023/11/10 02:35:53;;;;;;;1.52;1.42;;;;;;;;;;1035097;28;20036;-74
2023/11/10 02:36:23;;;;;;;1.00;1.00;;;;;;;;;;1036531;28;20026;-74
2023/11/10 02:36:54;;;;;;;2.67;0.77;;;;;;;;;;1037217;28;20044;-74
2023/11/10 02:37:24;;;;;;;2.42;1.73;;;;;;;;;;1036327;28;20029;-74
2023/11/10 02:37:55;;;;;;;1.00;1.00;;;;;;;;;;1036285;28;20459;-74
2023/11/10 02:38:26;;;;;;;2.60;2.40;;;;;;;;;;1035917;28;20056;-74
2023/11/10 02:38:56;;;;;;;1.67;1.17;;;;;;;;;;1036499;28;20033;-74
2023/11/10 02:39:27;;;;;;;0.43;0.43;;;;;;;;;;1028168;28;20026;-74
2023/11/10 02:39:58;;;;;;;1.65;1.55;;;;;;;;;;1027358;28;20308;-74
2023/11/10 02:40:28;;;;;;;0.30;0.30;;;;;;;;;;1029198;28;20065;-74
2023/11/10 02:40:59;;;;;;;0.77;0.77;;;;;;;;;;1032942;28;20502;-74
2023/11/10 02:41:29;;;;;;;0.75;0.75;;;;;;;;;;1029716;28;20076;-74
2023/11/10 02:42:03;;;;;;;0.50;0.50;;;;;;;;;;1035010;28;20050;-74
2023/11/10 02:42:34;;;;;;;2.42;1.20;;;;;;;;;;1031593;28;20029;-74
2023/11/10 02:43:05;;;;;;;0.82;0.82;;;;;;;;;;1028446;28;20026;-74
2023/11/10 02:43:36;;;;;;;1.10;0.95;;;;;;;;;;1032288;28;20477;-74
2023/11/10 02:44:06;;;;;;;2.22;1.30;;;;;;;;;;1031085;28;21440;-74
2023/11/10 02:44:37;;;;;;;6.75;1.27;;;;;;;;;;1032320;28;20474;-74
2023/11/10 02:45:08;;;;;;;1.63;1.52;;;;;;;;;;1036318;28;20026;-74
2023/11/10 02:45:38;;;;;;;0.90;0.90;;;;;;;;;;1036261;28;20033;-73
2023/11/10 02:46:09;;;;;;;0.93;0.93;;;;;;;;;;1036660;28;20584;-73
2023/11/10 02:46:39;;;;;;;0.40;0.40;;;;;;;;;;1036340;28;20591;-74
2023/11/10 02:47:10;;;;;;;4.78;1.10;;;;;;;;;;1034886;28;20037;-75
2023/11/10 02:47:41;;;;;;;0.30;0.30;;;;;;;;;;1030545;28;20033;-74
2023/11/10 02:48:11;;;;;;;0.20;0.20;;;;;;;;;;1033280;28;20022;-74
2023/11/10 02:48:42;;;;;;;0.20;0.20;;;;;;;;;;1032388;28;20033;-74
2023/11/10 02:49:13;;;;;;;0.52;0.50;;;;;;;;;;1031321;28;20034;-73
2023/11/10 02:49:43;;;;;;;0.73;0.73;;;;;;;;;;1031673;28;20018;-74
2023/11/10 02:50:14;;;;;;;0.75;0.75;;;;;;;;;;1030003;28;20072;-75
2023/11/10 02:50:47;;;;;;;5.32;4.00;;;;;;;;;;1027397;28;20522;-74
2023/11/10 02:51:17;;;;;;;5.63;1.65;;;;;;;;;;1031263;28;21731;-74
2023/11/10 02:51:49;;;;;;;1.08;0.85;;;;;;;;;;1028179;28;20034;-74
2023/11/10 02:52:20;;;;;;;3.15;1.48;;;;;;;;;;1027742;28;20090;-74
2023/11/10 02:52:51;;;;;;;0.47;0.47;;;;;;;;;;1029530;28;20180;-74
2023/11/10 02:53:21;;;;;;;0.55;0.55;;;;;;;;;;1028322;28;20603;-74
2023/11/10 02:53:52;;;;;;;3.70;2.35;;;;;;;;;;1034457;28;20038;-74
2023/11/10 02:54:23;;;;;;;1.27;1.17;;;;;;;;;;1036065;28;20021;-74
2023/11/10 02:54:54;;;;;;;1.25;1.05;;;;;;;;;;1031944;28;20514;-74
2023/11/10 02:55:25;;;;;;;1.23;1.13;;;;;;;;;;1031339;28;20040;-74
2023/11/10 02:55:55;;;;;;;2.38;1.90;;;;;;;;;;1032333;28;20063;-75
2023/11/10 02:56:26;;;;;;;9.48;1.20;;;;;;;;;;1032653;28;20072;-75
2023/11/10 02:57:02;;;;;;;1.17;1.00;;;;;;;;;;1037710;28;20037;-75
2023/11/10 02:57:33;;;;;;;0.57;0.57;;;;;;;;;;1030734;28;20077;-75
2023/11/10 02:58:04;;;;;;;1.20;0.73;;;;;;;;;;1029207;28;21427;-75
2023/11/10 02:58:34;;;;;;;1.77;1.67;;;;;;;;;;1036641;28;20651;-75
2023/11/10 02:59:06;;;;;;;0.10;0.10;;;;;;;;;;1036044;28;20034;-75
2023/11/10 02:59:38;;;;;;;0.65;0.65;;;;;;;;;;1031953;28;20049;-74
2023/11/10 03:00:09;;;;;;;0.98;0.98;;;;;;;;;;1029893;28;20092;-74
2023/11/10 03:00:40;;;;;;;0.52;0.52;;;;;;;;;;1030390;28;20025;-74
2023/11/10 03:01:20;;;;;;;0.30;0.30;;;;;;;;;;1024440;28;20844;-74
2023/11/10 03:01:50;;;;;;;0.93;0.75;;;;;;;;;;1033161;28;20444;-75
2023/11/10 03:02:21;;;;;;;0.57;0.57;;;;;;;;;;1031939;28;20029;-74
2023/11/10 03:02:51;;;;;;;1.00;1.00;;;;;;;;;;1029576;28;20054;-75
2023/11/10 03:03:22;;;;;;;1.35;1.25;;;;;;;;;;1031707;28;20554;-74
2023/11/10 03:03:52;;;;;;;1.75;1.67;;;;;;;;;;1031324;28;20040;-75
2023/11/10 03:04:23;;;;;;;3.20;1.05;;;;;;;;;;1029321;28;20038;-74
2023/11/10 03:04:54;;;;;;;1.25;1.17;;;;;;;;;;1033669;28;20033;-74
2023/11/10 03:05:25;;;;;;;1.10;1.00;;;;;;;;;;1035485;28;20381;-75
2023/11/10 03:05:56;;;;;;;2.17;2.03;;;;;;;;;;1036635;28;20033;-74
2023/11/10 03:06:27;;;;;;;1.33;1.23;;;;;;;;;;1035092;28;20139;-74